Time;durP1;ratioP1;P1;durP2;ratioP2;P2;SDS_P1;SDS_P2;PMS_P1;PMS_P2;Temp;Humidity;BMP_temperature;BMP_pressure;BME280_temperature;BME280_humidity;BME280_pressure;Samples;Min_cycle;Max_cycle;Signal;HPM_P1;HPM_P2
2021/01/31 00:00:27;;;;;;;7.55;0.85;;;10.80;99.90;;;;;;5030155;28;20049;-84
2021/01/31 00:02:58;;;;;;;4.65;1.02;;;10.90;99.90;;;;;;5026003;28;20069;-84
2021/01/31 00:05:26;;;;;;;3.13;0.95;;;10.80;99.90;;;;;;5038212;28;20082;-84
2021/01/31 00:07:53;;;;;;;3.53;1.23;;;10.80;99.90;;;;;;5044665;28;20121;-83
2021/01/31 00:10:23;;;;;;;3.55;0.80;;;10.80;99.90;;;;;;5044241;28;20136;-83
2021/01/31 00:12:50;;;;;;;4.53;0.90;;;10.90;99.90;;;;;;5046926;28;20052;-84
2021/01/31 00:15:19;;;;;;;4.63;0.80;;;10.80;99.90;;;;;;5047671;28;20054;-84
2021/01/31 00:17:46;;;;;;;3.72;0.80;;;10.90;99.90;;;;;;5050157;28;20107;-84
2021/01/31 00:20:15;;;;;;;3.38;0.98;;;10.90;99.90;;;;;;5061047;28;20359;-84
2021/01/31 00:22:41;;;;;;;2.50;0.80;;;10.80;99.90;;;;;;5051650;28;20574;-84
2021/01/31 00:25:09;;;;;;;4.28;1.00;;;10.80;99.90;;;;;;5062451;28;20052;-83
2021/01/31 00:27:35;;;;;;;6.38;1.00;;;10.80;99.90;;;;;;5049216;28;20091;-83
2021/01/31 00:30:08;;;;;;;5.60;1.00;;;10.80;99.90;;;;;;5064940;28;20053;-83
2021/01/31 00:32:34;;;;;;;4.55;1.13;;;10.80;99.90;;;;;;5051141;28;20057;-84
2021/01/31 00:35:00;;;;;;;5.30;1.00;;;10.80;99.90;;;;;;5064524;28;20037;-84
2021/01/31 00:37:27;;;;;;;4.15;0.93;;;10.70;99.90;;;;;;5063719;28;20503;-84
2021/01/31 00:39:53;;;;;;;3.47;0.93;;;10.70;99.90;;;;;;5062250;28;20103;-83
2021/01/31 00:42:21;;;;;;;4.65;0.82;;;10.70;99.90;;;;;;5060627;28;20103;-83
2021/01/31 00:44:50;;;;;;;4.85;1.10;;;10.70;99.90;;;;;;5049739;28;20491;-83
2021/01/31 00:47:19;;;;;;;2.85;0.73;;;10.70;99.90;;;;;;5043609;28;20067;-83
2021/01/31 00:49:48;;;;;;;4.47;1.05;;;10.70;99.90;;;;;;5042844;28;20142;-83
2021/01/31 00:52:14;;;;;;;5.82;1.25;;;10.70;99.90;;;;;;5044299;28;20553;-83
2021/01/31 00:54:41;;;;;;;3.83;0.75;;;10.70;99.90;;;;;;5047612;28;20111;-83
2021/01/31 00:57:08;;;;;;;5.65;1.10;;;10.70;99.90;;;;;;5061267;28;20052;-84
2021/01/31 00:59:34;;;;;;;4.20;0.90;;;10.70;99.90;;;;;;5048161;28;20048;-84
2021/01/31 01:02:06;;;;;;;7.15;1.08;;;10.70;99.90;;;;;;5047531;28;20116;-83
2021/01/31 01:04:33;;;;;;;2.72;1.00;;;10.70;99.90;;;;;;5044226;28;20548;-83
2021/01/31 01:06:59;;;;;;;5.50;0.80;;;10.70;99.90;;;;;;5045304;28;20050;-83
2021/01/31 01:09:26;;;;;;;2.45;0.80;;;10.70;99.90;;;;;;5047909;28;20053;-83
2021/01/31 01:11:52;;;;;;;3.13;1.00;;;10.70;99.90;;;;;;5050679;28;20544;-83
2021/01/31 01:14:19;;;;;;;3.05;0.88;;;10.70;99.90;;;;;;5046365;28;20072;-83
2021/01/31 01:16:45;;;;;;;5.15;1.45;;;10.60;99.90;;;;;;5060935;28;20382;-84
2021/01/31 01:19:12;;;;;;;6.63;1.30;;;10.60;99.90;;;;;;5063700;28;20040;-84
2021/01/31 01:21:38;;;;;;;8.98;1.42;;;10.60;99.90;;;;;;5061623;28;20064;-84
2021/01/31 01:24:05;;;;;;;5.43;1.45;;;10.60;99.90;;;;;;5047724;28;20098;-83
2021/01/31 01:26:32;;;;;;;7.05;1.27;;;10.60;99.90;;;;;;5049453;28;20106;-84
2021/01/31 01:28:59;;;;;;;7.18;1.70;;;10.60;99.90;;;;;;5062141;28;20360;-84
2021/01/31 01:31:26;;;;;;;5.47;1.20;;;10.70;99.90;;;;;;5059674;28;20040;-84
2021/01/31 01:33:52;;;;;;;5.00;1.30;;;10.70;99.90;;;;;;5061662;28;20107;-84
2021/01/31 01:36:19;;;;;;;4.18;1.20;;;10.70;99.90;;;;;;5062027;28;20033;-83
2021/01/31 01:38:46;;;;;;;6.75;1.50;;;10.70;99.90;;;;;;5049277;28;20069;-84
2021/01/31 01:41:12;;;;;;;8.52;1.70;;;10.70;99.90;;;;;;5046517;28;20049;-84
2021/01/31 01:43:40;;;;;;;6.88;1.65;;;10.60;99.90;;;;;;5047554;28;20376;-83
2021/01/31 01:46:18;;;;;;;7.35;1.58;;;10.60;99.90;;;;;;5049197;28;20091;-84
2021/01/31 01:48:48;;;;;;;7.38;1.73;;;10.60;99.90;;;;;;5048971;28;20041;-84
2021/01/31 01:51:15;;;;;;;;;;;10.60;99.90;;;;;;5064163;28;20104;-84
2021/01/31 01:53:43;;;;;;;6.25;1.60;;;10.60;99.90;;;;;;5051040;28;20021;-84
2021/01/31 01:56:25;;;;;;;8.13;1.95;;;10.60;99.90;;;;;;5048839;28;20048;-84
2021/01/31 01:58:56;;;;;;;9.38;2.30;;;10.60;99.90;;;;;;5046797;28;20367;-84
2021/01/31 02:01:24;;;;;;;8.80;2.50;;;10.60;99.90;;;;;;5052873;28;20383;-84
2021/01/31 02:03:55;;;;;;;11.52;2.50;;;10.60;99.90;;;;;;5067409;28;20103;-84
2021/01/31 02:06:24;;;;;;;8.88;2.22;;;10.60;99.90;;;;;;5036080;28;20049;-83
2021/01/31 02:08:54;;;;;;;9.75;2.45;;;10.60;99.90;;;;;;5051908;28;20045;-83
2021/01/31 02:11:23;;;;;;;13.45;2.70;;;10.60;99.90;;;;;;5052899;28;20103;-84
2021/01/31 02:13:59;;;;;;;9.45;2.90;;;10.60;99.90;;;;;;5051148;28;20110;-84
2021/01/31 02:16:55;;;;;;;11.45;3.30;;;10.60;99.90;;;;;;5052192;28;20112;-84
2021/01/31 02:19:43;;;;;;;10.70;3.50;;;10.50;99.90;;;;;;5064554;28;20485;-84
2021/01/31 02:22:39;;;;;;;9.93;3.25;;;10.50;99.90;;;;;;5049107;28;20103;-84
2021/01/31 02:25:36;;;;;;;10.77;3.63;;;10.50;99.90;;;;;;5038440;28;20102;-84
2021/01/31 02:28:42;;;;;;;18.15;4.82;;;10.50;99.90;;;;;;5074237;28;20072;-83
2021/01/31 02:31:08;;;;;;;14.27;4.40;;;10.50;99.90;;;;;;5062250;28;20091;-84
2021/01/31 02:34:11;;;;;;;12.90;3.80;;;10.50;99.90;;;;;;5052416;28;20053;-84
2021/01/31 02:36:51;;;;;;;11.82;3.40;;;10.50;99.90;;;;;;5046880;28;20053;-84
2021/01/31 02:39:43;;;;;;;12.55;3.50;;;10.40;99.90;;;;;;5047444;28;20057;-83
2021/01/31 02:42:21;;;;;;;15.85;4.70;;;10.40;99.90;;;;;;5047576;28;20360;-83
2021/01/31 02:45:16;;;;;;;12.85;4.40;;;10.40;99.90;;;;;;5052111;28;20068;-83
2021/01/31 02:47:51;;;;;;;18.73;5.68;;;10.40;99.90;;;;;;5061262;28;20387;-83
2021/01/31 02:50:29;;;;;;;23.05;5.72;;;10.30;99.90;;;;;;5047000;28;20053;-84
2021/01/31 02:53:05;;;;;;;21.40;5.50;;;10.40;99.90;;;;;;5048007;28;20124;-84
2021/01/31 02:55:37;;;;;;;22.85;6.10;;;10.30;99.90;;;;;;5055655;28;20107;-84
2021/01/31 02:58:30;;;;;;;21.40;6.00;;;10.30;99.90;;;;;;5043600;28;20037;-83
2021/01/31 03:01:05;;;;;;;21.80;5.97;;;10.30;99.90;;;;;;5039621;28;20095;-84
2021/01/31 03:03:41;;;;;;;23.45;6.35;;;10.30;99.90;;;;;;5058493;28;20053;-84
2021/01/31 03:06:14;;;;;;;30.52;7.88;;;10.30;99.90;;;;;;5043154;28;20050;-84
2021/01/31 03:08:51;;;;;;;36.78;9.00;;;10.20;99.90;;;;;;5047507;28;20564;-84
2021/01/31 03:11:35;;;;;;;36.95;10.57;;;10.20;99.90;;;;;;5054857;28;20105;-83
2021/01/31 03:14:08;;;;;;;35.30;10.25;;;10.20;99.90;;;;;;5051008;28;20045;-84
2021/01/31 03:16:41;;;;;;;30.38;11.43;;;10.20;99.90;;;;;;5035957;28;20098;-84
2021/01/31 03:19:19;;;;;;;45.45;12.52;;;10.20;99.90;;;;;;5048299;28;20429;-84
2021/01/31 03:21:51;;;;;;;38.53;12.13;;;10.20;99.90;;;;;;5031560;28;20467;-84
2021/01/31 03:24:32;;;;;;;36.28;11.50;;;10.20;99.90;;;;;;5028057;28;20041;-84
2021/01/31 03:27:04;;;;;;;49.88;14.00;;;10.20;99.90;;;;;;5026844;28;20060;-84
2021/01/31 03:29:31;;;;;;;35.47;14.05;;;10.10;99.90;;;;;;5041769;28;20061;-84
2021/01/31 03:32:08;;;;;;;35.72;14.30;;;10.10;99.90;;;;;;5027057;28;20498;-84
2021/01/31 03:34:46;;;;;;;40.03;13.18;;;10.10;99.90;;;;;;5029333;28;20138;-84
2021/01/31 03:37:14;;;;;;;41.23;13.67;;;10.10;99.90;;;;;;5009895;28;20038;-84
2021/01/31 03:39:44;;;;;;;37.80;12.80;;;10.10;99.90;;;;;;5013934;28;20312;-84
2021/01/31 03:42:12;;;;;;;34.92;12.48;;;10.10;99.90;;;;;;5046230;28;20060;-83
2021/01/31 03:44:42;;;;;;;35.10;13.25;;;10.10;99.90;;;;;;5035642;28;20056;-84
2021/01/31 03:47:44;;;;;;;36.88;12.52;;;10.10;99.90;;;;;;5059917;28;20048;-84
2021/01/31 03:50:11;;;;;;;31.65;11.77;;;10.10;99.90;;;;;;5044004;28;20512;-84
2021/01/31 03:52:38;;;;;;;36.00;12.68;;;10.10;99.90;;;;;;5060599;28;20094;-84
2021/01/31 03:55:05;;;;;;;32.15;11.63;;;10.10;99.90;;;;;;5048532;28;20048;-84
2021/01/31 03:57:39;;;;;;;41.45;11.23;;;10.10;99.90;;;;;;5043024;28;20057;-83
2021/01/31 04:00:09;;;;;;;34.38;10.68;;;10.10;99.90;;;;;;5060395;28;20087;-84
2021/01/31 04:03:02;;;;;;;36.33;10.43;;;10.10;99.90;;;;;;5037781;28;20050;-84
2021/01/31 04:05:32;;;;;;;30.05;10.60;;;10.10;99.90;;;;;;5019974;28;20061;-84
2021/01/31 04:08:03;;;;;;;30.95;10.25;;;10.10;99.90;;;;;;5032218;28;20065;-84
2021/01/31 04:10:30;;;;;;;33.45;12.55;;;10.10;99.90;;;;;;5030245;28;20045;-84
2021/01/31 04:13:00;;;;;;;36.15;11.80;;;10.00;99.90;;;;;;5019627;28;20049;-84
2021/01/31 04:16:06;;;;;;;30.90;11.45;;;10.00;99.90;;;;;;5009862;28;20045;-84
2021/01/31 04:18:33;;;;;;;31.77;12.77;;;10.00;99.90;;;;;;4968512;28;20047;-84
2021/01/31 04:20:59;;;;;;;38.38;12.10;;;10.00;99.90;;;;;;4972096;28;20051;-84
2021/01/31 04:23:26;;;;;;;34.22;12.40;;;10.00;99.90;;;;;;4973321;28;20039;-84
2021/01/31 04:25:52;;;;;;;32.90;11.55;;;10.00;99.90;;;;;;4957393;28;20054;-84
2021/01/31 04:28:25;;;;;;;38.13;12.18;;;9.90;99.90;;;;;;4985559;28;20046;-84
2021/01/31 04:30:59;;;;;;;29.90;10.35;;;10.00;99.90;;;;;;4988954;28;20438;-84
2021/01/31 04:33:26;;;;;;;46.63;11.77;;;10.00;99.90;;;;;;4969393;28;20066;-84
2021/01/31 04:35:54;;;;;;;33.25;10.88;;;10.00;99.90;;;;;;4985983;28;20050;-84
2021/01/31 04:38:21;;;;;;;45.70;10.65;;;10.00;99.90;;;;;;4981977;28;20054;-84
2021/01/31 04:40:47;;;;;;;40.88;12.07;;;9.90;99.90;;;;;;4980759;28;20065;-84
2021/01/31 04:43:16;;;;;;;41.08;12.40;;;9.90;99.90;;;;;;4979135;28;20046;-84
2021/01/31 04:45:44;;;;;;;46.53;12.82;;;9.90;99.90;;;;;;4986494;28;20426;-84
2021/01/31 04:48:40;;;;;;;33.38;13.60;;;9.90;99.90;;;;;;4984444;28;20043;-84
2021/01/31 04:51:27;;;;;;;31.77;12.00;;;9.80;99.90;;;;;;5033205;28;20049;-84
2021/01/31 04:54:14;;;;;;;35.90;12.35;;;9.90;99.90;;;;;;5035405;28;20102;-84
2021/01/31 04:56:46;;;;;;;35.30;14.05;;;9.80;99.90;;;;;;5053092;28;20067;-84
2021/01/31 04:59:29;;;;;;;34.75;12.30;;;9.80;99.90;;;;;;5046416;28;20510;-84
2021/01/31 05:02:03;;;;;;;33.28;12.68;;;9.80;99.90;;;;;;5047327;28;20053;-84
2021/01/31 05:04:33;;;;;;;35.08;12.27;;;9.80;99.90;;;;;;5046734;28;20045;-83
2021/01/31 05:07:04;;;;;;;29.10;10.45;;;9.80;99.90;;;;;;5056822;28;20474;-84
2021/01/31 05:09:30;;;;;;;34.40;11.40;;;9.80;99.90;;;;;;5046977;28;20433;-83
2021/01/31 05:12:14;;;;;;;30.55;11.95;;;9.80;99.90;;;;;;5066630;28;20794;-84
2021/01/31 05:15:10;;;;;;;31.05;11.68;;;9.70;99.90;;;;;;5038344;28;20049;-84
2021/01/31 05:17:39;;;;;;;33.85;11.90;;;9.70;99.90;;;;;;5072070;28;20041;-84
2021/01/31 05:20:08;;;;;;;35.72;12.38;;;9.70;99.90;;;;;;5042893;28;20053;-84
2021/01/31 05:22:48;;;;;;;31.65;11.77;;;9.70;99.90;;;;;;5045521;28;20482;-84
2021/01/31 05:25:19;;;;;;;32.65;10.48;;;9.70;99.90;;;;;;5046773;28;20045;-84
2021/01/31 05:27:49;;;;;;;33.10;10.90;;;9.70;99.90;;;;;;5047527;28;20061;-84
2021/01/31 05:30:16;;;;;;;41.10;10.90;;;9.70;99.90;;;;;;5063050;28;20081;-84
2021/01/31 05:33:05;;;;;;;37.22;10.32;;;9.70;99.90;;;;;;5049761;28;20049;-84
2021/01/31 05:35:44;;;;;;;28.77;9.68;;;9.70;99.90;;;;;;5065096;28;20048;-84
2021/01/31 05:38:11;;;;;;;27.63;9.00;;;9.70;99.90;;;;;;5048275;28;20379;-84
2021/01/31 05:40:40;;;;;;;35.95;9.48;;;9.70;99.90;;;;;;5046041;28;20057;-84
2021/01/31 05:43:14;;;;;;;25.42;8.40;;;9.70;99.90;;;;;;5044824;28;20052;-84
2021/01/31 05:45:44;;;;;;;21.02;8.43;;;9.70;99.90;;;;;;5051749;28;20038;-84
2021/01/31 05:48:35;;;;;;;21.80;7.88;;;9.70;99.90;;;;;;5049686;28;20106;-84
2021/01/31 05:51:14;;;;;;;18.35;7.35;;;9.70;99.90;;;;;;5039351;28;20549;-84
2021/01/31 05:53:41;;;;;;;17.65;8.27;;;9.60;99.90;;;;;;5043749;28;20096;-84
2021/01/31 05:56:29;;;;;;;19.35;8.02;;;9.60;99.90;;;;;;5038683;28;20136;-84
2021/01/31 05:58:58;;;;;;;23.70;8.35;;;9.60;99.90;;;;;;5023000;28;20480;-84
2021/01/31 06:01:25;;;;;;;26.10;7.78;;;9.60;99.90;;;;;;5024001;28;20053;-84
2021/01/31 06:04:14;;;;;;;19.48;8.23;;;9.60;99.90;;;;;;5026742;28;20045;-84
2021/01/31 06:06:45;;;;;;;20.77;8.32;;;9.60;99.90;;;;;;5024714;28;20042;-84
2021/01/31 06:09:13;;;;;;;30.15;10.20;;;9.60;99.90;;;;;;5026703;28;20395;-84
2021/01/31 06:11:40;;;;;;;20.92;9.30;;;9.60;99.90;;;;;;5024183;28;20045;-84
2021/01/31 06:14:30;;;;;;;26.73;9.73;;;9.50;99.90;;;;;;5027289;28;20053;-84
2021/01/31 06:17:07;;;;;;;34.28;10.18;;;9.60;99.90;;;;;;5026336;28;20491;-84
2021/01/31 06:19:37;;;;;;;32.38;11.35;;;9.50;99.90;;;;;;5026031;28;20510;-84
2021/01/31 06:22:06;;;;;;;33.63;11.65;;;9.50;99.90;;;;;;5028046;28;20042;-83
2021/01/31 06:24:36;;;;;;;33.20;11.82;;;9.50;99.90;;;;;;5030366;28;20096;-84
2021/01/31 06:27:04;;;;;;;29.58;10.38;;;9.60;99.90;;;;;;5032470;28;20045;-84
2021/01/31 06:29:49;;;;;;;26.38;11.45;;;9.60;99.90;;;;;;5031351;28;20092;-84
2021/01/31 06:32:23;;;;;;;27.77;11.40;;;9.60;99.90;;;;;;5024306;28;20438;-84
2021/01/31 06:34:53;;;;;;;31.80;10.95;;;9.60;99.90;;;;;;5023968;28;20065;-84
2021/01/31 06:37:49;;;;;;;33.85;10.85;;;9.60;99.90;;;;;;5027535;28;20042;-84
2021/01/31 06:40:43;;;;;;;29.38;11.15;;;9.60;99.90;;;;;;5030635;28;20096;-83
2021/01/31 06:43:58;;;;;;;41.60;10.43;;;9.60;99.90;;;;;;5047648;28;20095;-84
2021/01/31 06:47:05;;;;;;;29.58;9.82;;;9.60;99.90;;;;;;4978285;28;20045;-83
2021/01/31 06:50:23;;;;;;;31.20;10.63;;;9.60;99.90;;;;;;4971081;28;20177;-82
2021/01/31 06:53:21;;;;;;;30.90;9.85;;;9.60;99.90;;;;;;4995315;28;20436;-84
2021/01/31 06:56:00;;;;;;;33.78;9.68;;;9.60;99.90;;;;;;4986572;28;20071;-83
2021/01/31 06:58:27;;;;;;;34.55;8.80;;;9.60;99.90;;;;;;4973404;28;20458;-83
2021/01/31 07:01:05;;;;;;;44.88;10.85;;;9.60;99.90;;;;;;4972537;28;20120;-83
2021/01/31 07:03:58;;;;;;;37.50;10.03;;;9.60;99.90;;;;;;4954997;28;20102;-84
2021/01/31 07:07:02;;;;;;;31.77;9.27;;;9.60;99.90;;;;;;4970416;28;20291;-83
2021/01/31 07:09:40;;;;;;;36.10;9.77;;;9.60;99.90;;;;;;4984076;28;20070;-84
2021/01/31 07:12:19;;;;;;;37.43;10.00;;;9.60;99.90;;;;;;4954189;28;20043;-84
2021/01/31 07:14:57;;;;;;;43.03;9.85;;;9.60;99.90;;;;;;4988001;28;20290;-84
2021/01/31 07:17:40;;;;;;;41.10;8.95;;;9.60;99.90;;;;;;4980454;28;20101;-84
2021/01/31 07:20:29;;;;;;;42.55;9.88;;;9.60;99.90;;;;;;4997921;28;20108;-83
2021/01/31 07:23:04;;;;;;;46.03;9.35;;;9.60;99.90;;;;;;5000195;28;20046;-83
2021/01/31 07:25:48;;;;;;;47.47;9.00;;;9.60;99.90;;;;;;5025235;28;20081;-83
2021/01/31 07:28:23;;;;;;;47.78;9.70;;;9.60;99.90;;;;;;5025536;28;20103;-83
2021/01/31 07:30:50;;;;;;;41.22;9.55;;;9.60;99.90;;;;;;5026894;28;20056;-84
2021/01/31 07:33:25;;;;;;;41.92;9.15;;;9.60;99.90;;;;;;5025774;28;20550;-83
2021/01/31 07:36:11;;;;;;;45.47;8.68;;;9.60;99.90;;;;;;5040302;28;20483;-84
2021/01/31 07:39:00;;;;;;;41.75;8.77;;;9.70;99.90;;;;;;5034008;28;20057;-84
2021/01/31 07:41:28;;;;;;;52.22;9.35;;;9.60;99.90;;;;;;5049477;28;20049;-83
2021/01/31 07:44:03;;;;;;;49.60;9.50;;;9.70;99.90;;;;;;5030580;28;20483;-84
2021/01/31 07:46:30;;;;;;;35.83;9.35;;;9.70;99.90;;;;;;5044843;28;20037;-84
2021/01/31 07:48:59;;;;;;;50.20;11.02;;;9.70;99.90;;;;;;5049210;28;20052;-84
2021/01/31 07:51:25;;;;;;;54.75;10.77;;;9.70;99.90;;;;;;5025856;28;20046;-83
2021/01/31 07:53:54;;;;;;;48.17;11.43;;;9.70;99.90;;;;;;5026689;28;20042;-84
2021/01/31 07:56:26;;;;;;;50.67;11.15;;;9.70;99.90;;;;;;5052669;28;20556;-84
2021/01/31 07:58:54;;;;;;;39.83;10.45;;;9.70;99.90;;;;;;5047255;28;20375;-83
2021/01/31 08:01:39;;;;;;;44.63;10.52;;;9.70;99.90;;;;;;5045528;28;20367;-84
2021/01/31 08:04:15;;;;;;;41.95;10.15;;;9.70;99.90;;;;;;5049353;28;20048;-83
2021/01/31 08:06:59;;;;;;;48.80;10.68;;;9.70;99.90;;;;;;5052385;28;20046;-83
2021/01/31 08:09:25;;;;;;;42.75;10.90;;;9.70;99.90;;;;;;5055884;28;20391;-84
2021/01/31 08:11:57;;;;;;;47.40;11.68;;;9.70;99.90;;;;;;5051050;28;20037;-84
2021/01/31 08:15:01;;;;;;;45.58;11.07;;;9.70;99.90;;;;;;5069304;28;20119;-83
2021/01/31 08:17:46;;;;;;;40.60;10.60;;;9.70;99.90;;;;;;5051213;28;20056;-83
2021/01/31 08:20:27;;;;;;;62.30;12.05;;;9.70;99.90;;;;;;5046662;28;20371;-83
2021/01/31 08:22:56;;;;;;;56.65;12.07;;;9.70;99.90;;;;;;5047358;28;20063;-83
2021/01/31 08:25:28;;;;;;;56.60;11.18;;;9.70;99.90;;;;;;5047433;28;20051;-84
2021/01/31 08:28:01;;;;;;;60.03;11.90;;;9.70;99.90;;;;;;5064995;28;20041;-83
2021/01/31 08:30:27;;;;;;;55.83;12.13;;;9.70;99.90;;;;;;5066181;28;20045;-83
2021/01/31 08:33:00;;;;;;;61.60;12.32;;;9.70;99.90;;;;;;5060533;28;20052;-84
2021/01/31 08:35:41;;;;;;;56.40;12.98;;;9.70;99.90;;;;;;5042741;28;20056;-84
2021/01/31 08:38:33;;;;;;;57.17;12.85;;;9.70;99.90;;;;;;5068246;28;20037;-83
2021/01/31 08:40:59;;;;;;;50.13;12.10;;;9.70;99.90;;;;;;5046807;28;20044;-83
2021/01/31 08:43:32;;;;;;;45.50;11.55;;;9.80;99.90;;;;;;5050425;28;20078;-84
2021/01/31 08:46:17;;;;;;;48.78;11.85;;;9.80;99.90;;;;;;5051616;28;20525;-83
2021/01/31 08:49:11;;;;;;;43.58;11.70;;;9.80;99.90;;;;;;5055665;28;20056;-83
2021/01/31 08:51:39;;;;;;;45.17;10.60;;;9.90;99.90;;;;;;5052342;28;20056;-84
2021/01/31 08:54:08;;;;;;;;;;;9.90;99.90;;;;;;5045628;28;20099;-84
2021/01/31 08:56:37;;;;;;;53.30;11.65;;;9.90;99.90;;;;;;5042288;28;19921;-84
2021/01/31 08:59:05;;;;;;;38.92;11.55;;;9.90;99.90;;;;;;5035979;28;20057;-83
2021/01/31 09:01:48;;;;;;;57.63;13.25;;;9.90;99.90;;;;;;5026169;28;20045;-83
2021/01/31 09:04:18;;;;;;;48.60;13.25;;;10.00;99.90;;;;;;5038729;28;20064;-83
2021/01/31 09:06:47;;;;;;;49.60;12.35;;;10.00;99.90;;;;;;5034817;28;20535;-83
2021/01/31 09:09:45;;;;;;;40.50;12.02;;;10.00;99.90;;;;;;5033358;28;20042;-83
2021/01/31 09:12:13;;;;;;;39.17;10.20;;;10.00;99.90;;;;;;5026211;28;20057;-84
2021/01/31 09:14:42;;;;;;;45.88;11.23;;;10.10;99.90;;;;;;5035007;28;20088;-84
2021/01/31 09:17:21;;;;;;;39.65;10.80;;;10.10;99.90;;;;;;5030150;28;20435;-84
2021/01/31 09:19:48;;;;;;;44.42;11.73;;;10.10;99.90;;;;;;5021591;28;20041;-84
2021/01/31 09:22:20;;;;;;;44.92;12.20;;;10.20;99.90;;;;;;5027070;28;20435;-83
2021/01/31 09:24:55;;;;;;;45.85;12.05;;;10.20;99.90;;;;;;5033508;28;20441;-84
2021/01/31 09:27:25;;;;;;;45.03;11.00;;;10.30;99.90;;;;;;5023769;28;20054;-84
2021/01/31 09:30:13;;;;;;;46.67;11.98;;;10.30;99.90;;;;;;5011825;28;20065;-84
2021/01/31 09:32:45;;;;;;;54.05;12.77;;;10.40;99.90;;;;;;5047297;28;20065;-84
2021/01/31 09:35:20;;;;;;;51.67;11.98;;;10.40;99.90;;;;;;5040709;28;20056;-84
2021/01/31 09:37:47;;;;;;;51.13;12.00;;;10.50;99.90;;;;;;5038354;28;20067;-84
2021/01/31 09:40:15;;;;;;;46.70;10.38;;;10.50;99.90;;;;;;5038272;28;20473;-84
2021/01/31 09:42:43;;;;;;;45.00;10.20;;;10.50;99.90;;;;;;5040212;28;20499;-84
2021/01/31 09:45:32;;;;;;;46.80;11.05;;;10.50;99.90;;;;;;5044426;28;20069;-84
2021/01/31 09:47:59;;;;;;;44.13;9.35;;;10.50;99.90;;;;;;5044160;28;20056;-84
2021/01/31 09:50:25;;;;;;;40.83;9.73;;;10.50;99.90;;;;;;5041607;28;20048;-84
2021/01/31 09:52:53;;;;;;;45.45;9.50;;;10.50;99.90;;;;;;5040101;28;20080;-84
2021/01/31 09:55:39;;;;;;;39.38;8.55;;;10.50;99.90;;;;;;5038498;28;20048;-84
2021/01/31 09:58:22;;;;;;;44.75;8.80;;;10.50;99.90;;;;;;5037330;28;20118;-84
2021/01/31 10:00:50;;;;;;;37.13;8.80;;;10.50;99.90;;;;;;5036311;28;20106;-84
2021/01/31 10:03:29;;;;;;;53.47;9.90;;;10.50;99.90;;;;;;5034905;28;20042;-84
2021/01/31 10:06:11;;;;;;;40.80;9.80;;;10.60;99.90;;;;;;5035364;28;20065;-84
2021/01/31 10:08:51;;;;;;;50.70;10.25;;;10.60;99.90;;;;;;5030673;28;20055;-84
2021/01/31 10:11:38;;;;;;;45.80;9.63;;;10.60;99.90;;;;;;5031811;28;20112;-84
2021/01/31 10:14:07;;;;;;;40.65;9.70;;;10.60;99.90;;;;;;5030810;28;20116;-84
2021/01/31 10:16:35;;;;;;;;;;;10.60;99.90;;;;;;5034340;28;20080;-84
2021/01/31 10:19:23;;;;;;;29.48;7.40;;;10.60;99.90;;;;;;5045417;28;19920;-83
2021/01/31 10:21:53;;;;;;;28.40;6.10;;;10.60;99.90;;;;;;5029325;28;20107;-83
2021/01/31 10:24:27;;;;;;;24.75;5.18;;;10.60;99.90;;;;;;5015078;28;20046;-83
2021/01/31 10:27:28;;;;;;;15.65;4.25;;;10.60;99.90;;;;;;5047377;28;20045;-83
2021/01/31 10:30:15;;;;;;;17.13;4.25;;;10.60;99.90;;;;;;5050560;28;20056;-82
2021/01/31 10:32:42;;;;;;;17.90;3.83;;;10.60;99.90;;;;;;5048889;28;20091;-83
2021/01/31 10:35:37;;;;;;;15.27;3.75;;;10.60;99.90;;;;;;5041236;28;20049;-84
2021/01/31 10:38:27;;;;;;;15.10;3.60;;;10.60;99.90;;;;;;5038384;28;20063;-83
2021/01/31 10:40:55;;;;;;;14.30;2.85;;;10.60;99.90;;;;;;5038081;28;20060;-84
2021/01/31 10:43:23;;;;;;;9.07;2.22;;;10.60;99.90;;;;;;5030362;28;20387;-84
2021/01/31 10:45:50;;;;;;;9.70;2.30;;;10.60;99.90;;;;;;5046601;28;20040;-84
2021/01/31 10:48:17;;;;;;;9.07;1.55;;;10.60;99.90;;;;;;5038903;28;20046;-84
2021/01/31 10:50:44;;;;;;;7.18;1.70;;;10.70;99.90;;;;;;5033758;28;20045;-83
2021/01/31 10:53:11;;;;;;;4.40;1.45;;;10.70;99.90;;;;;;5033139;28;20057;-83
2021/01/31 10:55:37;;;;;;;6.60;1.80;;;10.70;99.90;;;;;;5058275;28;20106;-83
2021/01/31 10:58:04;;;;;;;6.10;1.92;;;10.70;99.90;;;;;;5071868;28;20482;-83
2021/01/31 11:00:30;;;;;;;5.65;1.48;;;10.80;99.90;;;;;;5046670;28;20115;-83
2021/01/31 11:02:56;;;;;;;5.28;1.42;;;10.80;99.90;;;;;;5052839;27;20111;-84
2021/01/31 11:05:23;;;;;;;7.18;1.48;;;10.80;99.90;;;;;;5039221;28;20049;-84
2021/01/31 11:07:49;;;;;;;5.97;1.35;;;10.80;99.90;;;;;;5045395;28;20052;-84
2021/01/31 11:10:18;;;;;;;4.65;1.10;;;10.80;99.90;;;;;;5043353;28;20041;-84
2021/01/31 11:12:44;;;;;;;4.68;1.00;;;10.80;99.90;;;;;;5049058;28;20053;-84
2021/01/31 11:15:12;;;;;;;3.97;1.00;;;10.80;99.90;;;;;;5049576;28;20052;-83
2021/01/31 11:17:38;;;;;;;4.97;0.98;;;10.90;99.90;;;;;;5050064;28;20102;-84
2021/01/31 11:20:06;;;;;;;6.32;1.42;;;10.90;99.90;;;;;;5047984;28;20114;-84
2021/01/31 11:22:33;;;;;;;4.07;1.25;;;10.90;99.90;;;;;;5047620;28;20107;-84
2021/01/31 11:25:00;;;;;;;2.72;1.33;;;11.00;99.90;;;;;;5050298;28;20541;-84
2021/01/31 11:27:26;;;;;;;5.72;1.00;;;11.00;99.90;;;;;;5047356;28;20059;-83
2021/01/31 11:29:53;;;;;;;4.38;1.20;;;11.10;99.90;;;;;;5051343;28;20070;-84
2021/01/31 11:32:19;;;;;;;4.60;2.05;;;11.20;99.90;;;;;;5051435;28;20057;-84
2021/01/31 11:34:46;;;;;;;7.53;4.07;;;11.20;99.90;;;;;;5049720;28;20498;-84
2021/01/31 11:37:12;;;;;;;2.15;1.08;;;11.20;99.90;;;;;;5048477;28;20099;-85
2021/01/31 11:39:39;;;;;;;4.50;1.40;;;11.20;99.90;;;;;;5047179;28;20049;-84
2021/01/31 11:42:05;;;;;;;2.78;1.08;;;11.30;99.90;;;;;;5048949;28;20041;-84
2021/01/31 11:44:32;;;;;;;5.60;1.20;;;11.30;99.90;;;;;;5050143;28;20079;-84
2021/01/31 11:46:58;;;;;;;3.65;1.48;;;11.30;99.90;;;;;;5045935;28;20056;-84
2021/01/31 11:49:25;;;;;;;3.53;0.80;;;11.30;99.90;;;;;;5045869;28;20048;-84
2021/01/31 11:51:51;;;;;;;4.10;1.10;;;11.30;99.90;;;;;;5048195;28;20072;-84
2021/01/31 11:54:18;;;;;;;5.00;1.92;;;11.40;99.90;;;;;;5045571;28;20467;-84
2021/01/31 11:56:44;;;;;;;1.88;0.90;;;11.40;99.90;;;;;;5030165;28;20111;-84
2021/01/31 11:59:11;;;;;;;1.40;1.00;;;11.40;99.90;;;;;;5026892;28;20094;-84
2021/01/31 12:01:40;;;;;;;0.52;0.43;;;11.40;99.90;;;;;;5043980;28;20051;-84
2021/01/31 12:04:07;;;;;;;1.27;0.32;;;11.40;99.90;;;;;;5031229;28;20049;-84
2021/01/31 12:06:34;;;;;;;1.40;0.30;;;11.40;99.90;;;;;;5012227;28;20045;-83
2021/01/31 12:09:01;;;;;;;1.52;0.50;;;11.40;99.90;;;;;;5024935;28;20049;-83
2021/01/31 12:11:28;;;;;;;1.27;0.30;;;11.40;99.90;;;;;;5030199;28;20457;-84
2021/01/31 12:13:56;;;;;;;1.85;0.52;;;11.40;99.90;;;;;;5029491;28;20048;-84
2021/01/31 12:16:24;;;;;;;1.58;0.50;;;11.40;99.90;;;;;;5030437;28;20087;-83
2021/01/31 12:18:50;;;;;;;2.72;1.70;;;11.40;99.90;;;;;;5030833;28;20048;-84
2021/01/31 12:21:17;;;;;;;2.38;0.73;;;11.50;99.90;;;;;;5030120;28;20069;-84
2021/01/31 12:23:44;;;;;;;1.92;0.30;;;11.50;99.90;;;;;;5032574;28;20045;-84
2021/01/31 12:26:10;;;;;;;0.90;0.50;;;11.50;99.90;;;;;;5028059;28;20045;-84
2021/01/31 12:28:37;;;;;;;1.45;0.57;;;11.40;99.90;;;;;;5026995;28;20111;-84
2021/01/31 12:31:03;;;;;;;1.58;0.40;;;11.50;99.90;;;;;;5025912;28;20045;-84
2021/01/31 12:33:29;;;;;;;1.73;0.80;;;11.50;99.90;;;;;;5024065;28;20096;-84
2021/01/31 12:35:56;;;;;;;2.50;0.80;;;11.50;99.90;;;;;;5030118;28;20132;-83
2021/01/31 12:38:22;;;;;;;6.70;1.15;;;11.50;99.90;;;;;;5024439;28;20046;-83
2021/01/31 12:40:49;;;;;;;11.98;1.40;;;11.50;99.90;;;;;;5024067;28;20049;-84
2021/01/31 12:43:16;;;;;;;11.18;1.73;;;11.60;99.90;;;;;;5025405;28;20135;-84
2021/01/31 12:45:43;;;;;;;23.35;3.22;;;11.50;99.90;;;;;;5037652;28;20092;-84
2021/01/31 12:48:09;;;;;;;25.05;3.72;;;11.50;99.90;;;;;;5036011;28;20056;-84
2021/01/31 12:50:36;;;;;;;29.45;3.85;;;11.50;99.90;;;;;;5034673;28;20048;-84
2021/01/31 12:53:03;;;;;;;32.95;4.20;;;11.60;99.90;;;;;;5029760;28;20057;-83
2021/01/31 12:55:29;;;;;;;43.75;4.88;;;11.60;99.90;;;;;;5030576;28;20055;-84
2021/01/31 12:57:56;;;;;;;48.88;5.45;;;11.60;99.90;;;;;;5065703;28;20066;-84
2021/01/31 13:00:23;;;;;;;47.95;5.40;;;11.60;99.90;;;;;;5065540;28;20065;-83
2021/01/31 13:02:50;;;;;;;65.78;6.95;;;11.60;99.90;;;;;;5047161;28;20036;-83
2021/01/31 13:05:22;;;;;;;61.70;7.35;;;11.60;99.90;;;;;;5038999;28;20060;-83
2021/01/31 13:07:49;;;;;;;82.18;7.97;;;11.60;99.90;;;;;;5048966;28;20045;-83
2021/01/31 13:10:17;;;;;;;75.82;7.13;;;11.70;99.90;;;;;;5039908;28;20072;-84
2021/01/31 13:12:44;;;;;;;71.57;8.07;;;11.70;99.90;;;;;;5045382;28;20143;-84